createdAt,value
2022-11-19T00:01:14.910Z,11.00
2022-11-19T00:03:42.277Z,10.87
2022-11-19T00:06:11.634Z,11.47
2022-11-19T00:08:38.980Z,11.43
2022-11-19T00:11:15.386Z,12.20
2022-11-19T00:13:43.287Z,11.43
2022-11-19T00:16:14.607Z,12.13
2022-11-19T00:18:41.669Z,12.57
2022-11-19T00:21:10.596Z,12.33
2022-11-19T00:23:37.926Z,11.47
2022-11-19T00:26:14.898Z,12.43
2022-11-19T00:28:42.035Z,12.77
2022-11-19T00:31:11.302Z,12.57
2022-11-19T00:33:38.916Z,12.80
2022-11-19T00:36:07.740Z,12.43
2022-11-19T00:38:34.698Z,13.03
2022-11-19T00:41:01.792Z,13.20
2022-11-19T00:43:47.008Z,12.57
2022-11-19T00:46:28.416Z,12.47
2022-11-19T00:48:56.678Z,12.77
2022-11-19T00:51:24.923Z,13.33
2022-11-19T00:53:52.144Z,12.83
2022-11-19T00:56:21.068Z,13.77
2022-11-19T00:58:48.322Z,12.07
2022-11-19T01:01:16.186Z,12.60
2022-11-19T01:03:45.359Z,14.20
2022-11-19T01:06:17.770Z,12.17
2022-11-19T01:08:46.410Z,13.77
2022-11-19T01:11:16.313Z,11.90
2022-11-19T01:13:43.531Z,12.43
2022-11-19T01:16:14.296Z,12.03
2022-11-19T01:18:42.179Z,12.83
2022-11-19T01:21:11.167Z,12.83
2022-11-19T01:23:39.361Z,11.43
2022-11-19T01:26:06.464Z,13.67
2022-11-19T01:28:33.245Z,13.17
2022-11-19T01:31:00.492Z,14.30
2022-11-19T01:33:27.487Z,11.33
2022-11-19T01:36:01.665Z,11.33
2022-11-19T01:38:29.115Z,13.27
2022-11-19T01:40:56.718Z,12.47
2022-11-19T01:43:44.891Z,12.10
2022-11-19T01:46:14.067Z,11.90
2022-11-19T01:49:14.520Z,11.20
2022-11-19T01:51:51.484Z,11.80
2022-11-19T01:54:25.457Z,10.30
2022-11-19T01:56:54.423Z,12.10
2022-11-19T01:59:21.926Z,11.30
2022-11-19T02:01:48.714Z,12.17
2022-11-19T02:04:17.628Z,11.00
2022-11-19T02:06:45.583Z,11.00
2022-11-19T02:09:12.593Z,13.07
2022-11-19T02:12:16.970Z,11.43
2022-11-19T02:14:52.028Z,9.60
2022-11-19T02:17:27.438Z,10.77
2022-11-19T02:20:13.241Z,9.73
2022-11-19T02:23:01.076Z,11.17
2022-11-19T02:25:58.615Z,11.93
2022-11-19T02:28:34.278Z,10.93
2022-11-19T02:31:07.965Z,11.50
2022-11-19T02:33:52.209Z,10.70
2022-11-19T02:36:36.853Z,10.27
2022-11-19T02:39:13.253Z,9.40
2022-11-19T02:42:14.404Z,12.10
2022-11-19T02:44:58.858Z,9.13
2022-11-19T02:48:00.785Z,9.30
2022-11-19T02:50:33.363Z,9.43
2022-11-19T02:53:00.538Z,9.47
2022-11-19T02:55:27.825Z,10.63
2022-11-19T02:58:04.117Z,10.33
2022-11-19T03:01:00.712Z,9.70
2022-11-19T03:03:46.804Z,9.17
2022-11-19T03:06:18.246Z,8.17
2022-11-19T03:08:46.474Z,10.03
2022-11-19T03:11:23.663Z,10.30
2022-11-19T03:14:30.943Z,8.90
2022-11-19T03:16:57.913Z,8.90
2022-11-19T03:19:36.787Z,9.57
2022-11-19T03:22:03.774Z,9.23
2022-11-19T03:24:35.418Z,8.10
2022-11-19T03:27:20.429Z,7.40
2022-11-19T03:29:51.651Z,8.67
2022-11-19T03:32:22.560Z,7.40
2022-11-19T03:34:56.226Z,6.60
2022-11-19T03:37:24.977Z,7.37
2022-11-19T03:39:52.444Z,7.77
2022-11-19T03:42:20.701Z,7.33
2022-11-19T03:44:51.843Z,7.13
2022-11-19T03:47:24.614Z,5.87
2022-11-19T03:49:57.782Z,7.80
2022-11-19T03:52:24.800Z,6.70
2022-11-19T03:54:52.756Z,7.90
2022-11-19T03:57:21.496Z,7.73
2022-11-19T03:59:48.062Z,7.90
2022-11-19T04:02:15.457Z,7.37
2022-11-19T04:04:42.463Z,5.70
2022-11-19T04:07:19.137Z,7.03
2022-11-19T04:09:46.240Z,6.93
2022-11-19T04:12:22.200Z,6.90
2022-11-19T04:14:49.687Z,6.90
2022-11-19T04:17:18.033Z,6.87
2022-11-19T04:19:45.391Z,5.50
2022-11-19T04:22:12.474Z,6.13
2022-11-19T04:24:39.499Z,7.03
2022-11-19T04:27:06.490Z,6.40
2022-11-19T04:29:33.511Z,6.17
2022-11-19T04:32:00.511Z,5.40
2022-11-19T04:34:27.491Z,6.13
2022-11-19T04:36:54.542Z,5.17
2022-11-19T04:39:21.482Z,5.77
2022-11-19T04:41:48.646Z,5.60
2022-11-19T04:44:15.659Z,5.53
2022-11-19T04:46:42.675Z,5.63
2022-11-19T04:49:09.665Z,6.30
2022-11-19T04:51:36.667Z,5.97
2022-11-19T04:54:03.256Z,6.57
2022-11-19T04:56:30.241Z,6.00
2022-11-19T04:58:57.216Z,5.77
2022-11-19T05:01:24.264Z,5.53
2022-11-19T05:03:51.322Z,5.73
2022-11-19T05:06:18.381Z,4.97
2022-11-19T05:08:45.217Z,5.30
2022-11-19T05:11:12.203Z,4.67
2022-11-19T05:13:39.207Z,4.97
2022-11-19T05:16:06.152Z,4.77
2022-11-19T05:18:33.132Z,4.57
2022-11-19T05:21:00.156Z,3.60
2022-11-19T05:23:27.140Z,4.50
2022-11-19T05:25:54.157Z,5.03
2022-11-19T05:28:32.771Z,4.37
2022-11-19T05:31:05.339Z,5.87
2022-11-19T05:33:34.181Z,4.87
2022-11-19T05:36:01.752Z,5.77
2022-11-19T05:38:28.724Z,4.43
2022-11-19T05:40:55.714Z,4.60
2022-11-19T05:43:22.427Z,4.90
2022-11-19T05:45:48.974Z,4.30
2022-11-19T05:48:15.947Z,4.20
2022-11-19T05:50:43.036Z,4.13
2022-11-19T05:53:10.389Z,5.57
2022-11-19T05:55:37.367Z,4.50
2022-11-19T05:58:04.369Z,4.10
2022-11-19T06:00:31.612Z,4.70
2022-11-19T06:02:58.603Z,3.80
2022-11-19T06:05:25.661Z,4.30
2022-11-19T06:07:52.691Z,3.97
2022-11-19T06:10:19.294Z,4.57
2022-11-19T06:12:46.353Z,4.37
2022-11-19T06:15:13.843Z,4.63
2022-11-19T06:17:40.971Z,4.33
2022-11-19T06:20:11.524Z,4.60
2022-11-19T06:22:39.735Z,4.37
2022-11-19T06:25:07.664Z,4.37
2022-11-19T06:27:34.928Z,4.77
2022-11-19T06:30:01.932Z,4.67
2022-11-19T06:32:28.932Z,4.37
2022-11-19T06:34:55.463Z,4.33
2022-11-19T06:37:22.523Z,4.37
2022-11-19T06:39:49.580Z,4.40
2022-11-19T06:42:35.111Z,3.83
2022-11-19T06:45:06.592Z,4.03
2022-11-19T06:47:33.698Z,4.50
2022-11-19T06:50:00.261Z,3.83
2022-11-19T06:52:27.675Z,4.40
2022-11-19T06:54:55.118Z,4.37
2022-11-19T06:57:22.330Z,4.10
2022-11-19T06:59:49.309Z,4.40
2022-11-19T07:02:21.151Z,4.57
2022-11-19T07:04:48.073Z,4.40
2022-11-19T07:07:14.738Z,4.10
2022-11-19T07:09:41.361Z,3.97
2022-11-19T07:12:08.322Z,3.67
2022-11-19T07:14:35.797Z,4.30
2022-11-19T07:17:03.030Z,3.63
2022-11-19T07:19:30.020Z,3.80
2022-11-19T07:21:57.016Z,4.63
2022-11-19T07:24:24.113Z,3.27
2022-11-19T07:26:50.700Z,4.80
2022-11-19T07:29:18.356Z,4.57
2022-11-19T07:31:49.356Z,4.60
2022-11-19T07:34:17.633Z,4.23
2022-11-19T07:36:44.721Z,4.03
2022-11-19T07:39:11.374Z,3.90
2022-11-19T07:41:57.076Z,4.03
2022-11-19T07:44:23.716Z,3.57
2022-11-19T07:46:50.723Z,4.20
2022-11-19T07:49:18.099Z,3.73
2022-11-19T07:51:45.506Z,3.87
2022-11-19T07:54:12.915Z,3.50
2022-11-19T07:56:39.969Z,3.37
2022-11-19T07:59:07.016Z,3.80
2022-11-19T08:01:36.597Z,3.87
2022-11-19T08:04:05.424Z,4.00
2022-11-19T08:06:34.404Z,3.97
2022-11-19T08:09:02.563Z,4.43
2022-11-19T08:11:29.623Z,4.30
2022-11-19T08:13:56.860Z,3.90
2022-11-19T08:16:42.512Z,3.53
2022-11-19T08:19:10.573Z,3.63
2022-11-19T08:21:40.908Z,4.67
2022-11-19T08:24:09.000Z,4.93
2022-11-19T08:26:36.044Z,3.67
2022-11-19T08:29:03.323Z,4.40
2022-11-19T08:31:30.389Z,3.60
2022-11-19T08:33:57.032Z,4.10
2022-11-19T08:36:24.098Z,3.53
2022-11-19T08:38:50.806Z,4.00
2022-11-19T08:41:36.592Z,4.40
2022-11-19T08:44:03.417Z,3.43
2022-11-19T08:46:30.446Z,4.20
2022-11-19T08:48:57.523Z,4.50
2022-11-19T08:51:24.519Z,3.97
2022-11-19T08:53:54.356Z,4.13
2022-11-19T08:56:21.520Z,3.87
2022-11-19T08:58:48.964Z,4.47
2022-11-19T09:01:17.548Z,3.77
2022-11-19T09:03:44.962Z,4.67
2022-11-19T09:06:12.187Z,3.70
2022-11-19T09:08:39.284Z,4.10
2022-11-19T09:11:15.087Z,4.33
2022-11-19T09:13:42.159Z,3.80
2022-11-19T09:16:09.913Z,3.00
2022-11-19T09:18:40.127Z,3.30
2022-11-19T09:21:08.423Z,3.63
2022-11-19T09:23:35.606Z,3.57
2022-11-19T09:26:08.803Z,3.77
2022-11-19T09:28:36.183Z,3.43
2022-11-19T09:31:12.132Z,3.37
2022-11-19T09:33:42.203Z,3.20
2022-11-19T09:36:10.227Z,3.40
2022-11-19T09:38:37.248Z,3.63
2022-11-19T09:41:43.679Z,4.27
2022-11-19T09:44:52.961Z,3.07
2022-11-19T09:47:40.095Z,2.50
2022-11-19T09:50:17.273Z,3.20
2022-11-19T09:53:09.233Z,3.10
2022-11-19T09:55:39.739Z,3.13
2022-11-19T09:58:31.262Z,3.00
2022-11-19T10:00:59.486Z,2.50
2022-11-19T10:03:32.764Z,3.40
2022-11-19T10:06:15.472Z,2.90
2022-11-19T10:09:09.935Z,3.03
2022-11-19T10:12:01.603Z,2.70
2022-11-19T10:14:43.574Z,2.77
2022-11-19T10:17:19.091Z,3.30
2022-11-19T10:19:48.557Z,2.93
2022-11-19T10:22:36.912Z,2.27
2022-11-19T10:25:17.252Z,2.53
2022-11-19T10:27:53.477Z,2.90
2022-11-19T10:30:23.224Z,2.23
2022-11-19T10:33:00.605Z,2.60
2022-11-19T10:35:35.865Z,2.50
2022-11-19T10:38:06.804Z,2.60
2022-11-19T10:40:42.668Z,2.53
2022-11-19T10:43:09.666Z,2.30
2022-11-19T10:45:36.680Z,2.10
2022-11-19T10:48:14.733Z,2.20
2022-11-19T10:50:42.255Z,2.40
2022-11-19T10:53:14.906Z,2.80
2022-11-19T10:55:54.249Z,2.47
2022-11-19T10:58:33.355Z,3.30
2022-11-19T11:01:03.450Z,2.20
2022-11-19T11:03:41.861Z,2.27
2022-11-19T11:06:10.056Z,2.70
2022-11-19T11:08:53.906Z,2.07
2022-11-19T11:11:51.099Z,2.10
2022-11-19T11:14:39.105Z,1.37
2022-11-19T11:17:18.372Z,2.13
2022-11-19T11:19:45.508Z,2.30
2022-11-19T11:22:12.142Z,2.63
2022-11-19T11:24:39.364Z,2.07
2022-11-19T11:27:27.388Z,2.97
2022-11-19T11:30:24.852Z,2.20
2022-11-19T11:32:51.851Z,1.93
2022-11-19T11:35:33.865Z,2.50
2022-11-19T11:38:02.481Z,1.80
2022-11-19T11:40:30.202Z,2.53
2022-11-19T11:42:57.410Z,2.60
2022-11-19T11:45:32.827Z,2.30
2022-11-19T11:48:07.976Z,2.20
2022-11-19T11:50:36.680Z,1.93
2022-11-19T11:53:08.839Z,2.17
2022-11-19T11:55:38.409Z,2.40
2022-11-19T11:58:23.449Z,2.00
2022-11-19T12:00:54.013Z,2.07
2022-11-19T12:03:21.014Z,2.30
2022-11-19T12:06:11.829Z,2.10
2022-11-19T12:09:01.588Z,2.43
2022-11-19T12:11:54.857Z,2.67
2022-11-19T12:14:29.821Z,2.63
2022-11-19T12:17:09.037Z,2.40
2022-11-19T12:19:36.040Z,2.10
2022-11-19T12:22:40.425Z,2.67
2022-11-19T12:25:19.362Z,2.03
2022-11-19T12:28:10.611Z,3.00
2022-11-19T12:30:48.053Z,2.23
2022-11-19T12:33:43.285Z,2.70
2022-11-19T12:36:32.931Z,3.10
2022-11-19T12:39:26.638Z,2.67
2022-11-19T12:42:05.214Z,2.30
2022-11-19T12:44:46.809Z,2.90
2022-11-19T12:47:31.961Z,2.83
2022-11-19T12:50:26.019Z,2.63
2022-11-19T12:53:16.164Z,2.80
2022-11-19T12:55:53.261Z,2.73
2022-11-19T12:58:21.243Z,2.70
2022-11-19T13:00:55.388Z,2.40
2022-11-19T13:04:07.037Z,2.50
2022-11-19T13:07:04.447Z,2.33
2022-11-19T13:09:50.788Z,2.10
2022-11-19T13:12:22.674Z,2.30
2022-11-19T13:15:04.417Z,2.67
2022-11-19T13:17:34.869Z,2.30
2022-11-19T13:20:06.468Z,2.60
2022-11-19T13:22:36.833Z,2.13
2022-11-19T13:25:29.565Z,2.00
2022-11-19T13:28:00.579Z,2.60
2022-11-19T13:30:29.915Z,1.97
2022-11-19T13:33:11.344Z,2.13
2022-11-19T13:35:56.001Z,2.20
2022-11-19T13:38:36.992Z,2.10
2022-11-19T13:41:14.076Z,2.23
2022-11-19T13:43:59.734Z,2.60
2022-11-19T13:46:31.911Z,2.67
2022-11-19T13:49:24.034Z,2.57
2022-11-19T13:51:59.308Z,2.97
2022-11-19T13:54:45.766Z,2.60
2022-11-19T13:57:38.393Z,3.30
2022-11-19T14:00:21.968Z,2.70
2022-11-19T14:02:48.974Z,2.77
2022-11-19T14:05:49.295Z,3.00
2022-11-19T14:08:25.463Z,2.73
2022-11-19T14:11:25.150Z,3.07
2022-11-19T14:14:38.024Z,2.60
2022-11-19T14:17:43.735Z,2.37
2022-11-19T14:20:49.112Z,2.37
2022-11-19T14:24:06.551Z,2.37
2022-11-19T14:27:13.436Z,2.43
2022-11-19T14:29:45.994Z,2.23
2022-11-19T14:32:12.607Z,2.67
2022-11-19T14:34:46.777Z,2.70
2022-11-19T14:37:21.555Z,2.77
2022-11-19T14:39:58.822Z,2.30
2022-11-19T14:42:25.789Z,2.37
2022-11-19T14:45:01.675Z,2.50
2022-11-19T14:47:40.127Z,2.50
2022-11-19T14:50:36.915Z,2.40
2022-11-19T14:53:04.340Z,2.23
2022-11-19T14:55:33.905Z,3.27
2022-11-19T14:58:23.374Z,2.23
2022-11-19T15:00:51.369Z,2.73
2022-11-19T15:03:27.634Z,2.43
2022-11-19T15:05:54.790Z,2.63
2022-11-19T15:08:24.509Z,2.57
2022-11-19T15:11:11.358Z,2.10
2022-11-19T15:13:40.631Z,2.60
2022-11-19T15:16:18.424Z,2.67
2022-11-19T15:18:44.967Z,2.20
2022-11-19T15:21:26.511Z,2.47
2022-11-19T15:24:19.990Z,2.20
2022-11-19T15:27:12.512Z,2.73
2022-11-19T15:30:05.887Z,2.13
2022-11-19T15:32:32.859Z,1.93
2022-11-19T15:35:18.104Z,2.23
2022-11-19T15:37:54.185Z,2.70
2022-11-19T15:40:30.593Z,3.80
2022-11-19T15:43:24.265Z,2.97
2022-11-19T15:46:03.209Z,2.60
2022-11-19T15:48:57.348Z,2.33
2022-11-19T15:51:24.809Z,2.17
2022-11-19T15:54:17.687Z,2.23
2022-11-19T15:56:49.724Z,2.40
2022-11-19T15:59:19.090Z,2.40
2022-11-19T16:02:02.925Z,3.83
2022-11-19T16:04:36.993Z,2.57
2022-11-19T16:07:07.628Z,2.40
2022-11-19T16:09:35.298Z,2.83
2022-11-19T16:12:20.970Z,3.23
2022-11-19T16:15:10.967Z,2.67
2022-11-19T16:17:47.330Z,3.13
2022-11-19T16:20:14.870Z,2.40
2022-11-19T16:22:46.521Z,3.43
2022-11-19T16:25:25.557Z,3.33
2022-11-19T16:27:55.916Z,2.50
2022-11-19T16:30:26.449Z,3.80
2022-11-19T16:32:56.898Z,3.00
2022-11-19T16:35:27.736Z,2.40
2022-11-19T16:37:56.261Z,3.50
2022-11-19T16:40:23.393Z,3.50
2022-11-19T16:42:59.573Z,3.73
2022-11-19T16:45:28.546Z,3.47
2022-11-19T16:48:01.007Z,3.83
2022-11-19T16:50:35.092Z,3.47
2022-11-19T16:53:04.287Z,3.27
2022-11-19T16:55:33.741Z,2.77
2022-11-19T16:58:02.771Z,3.27
2022-11-19T17:00:37.240Z,2.97
2022-11-19T17:03:21.070Z,3.70
2022-11-19T17:05:50.614Z,3.87
2022-11-19T17:08:37.780Z,4.70
2022-11-19T17:11:59.442Z,4.67
2022-11-19T17:14:35.597Z,5.50
2022-11-19T17:17:03.367Z,4.80
2022-11-19T17:19:35.105Z,5.77
2022-11-19T17:22:03.959Z,5.00
2022-11-19T17:24:44.465Z,5.87
2022-11-19T17:27:28.237Z,5.27
2022-11-19T17:30:08.488Z,5.13
2022-11-19T17:32:42.596Z,5.27
2022-11-19T17:35:30.020Z,4.80
2022-11-19T17:37:58.787Z,4.23
2022-11-19T17:40:25.797Z,5.17
2022-11-19T17:43:11.246Z,4.93
2022-11-19T17:45:38.276Z,5.20
2022-11-19T17:48:20.364Z,5.60
2022-11-19T17:50:47.355Z,5.23
2022-11-19T17:53:13.909Z,5.07
2022-11-19T17:55:41.932Z,4.37
2022-11-19T17:58:08.965Z,5.13
2022-11-19T18:00:36.119Z,4.07
2022-11-19T18:03:03.514Z,3.90
2022-11-19T18:05:34.435Z,4.43
2022-11-19T18:08:01.006Z,4.67
2022-11-19T18:10:28.274Z,4.37
2022-11-19T18:12:55.341Z,3.63
2022-11-19T18:15:22.339Z,5.13
2022-11-19T18:17:49.331Z,4.33
2022-11-19T18:20:16.153Z,4.67
2022-11-19T18:22:43.218Z,3.80
2022-11-19T18:25:15.113Z,3.37
2022-11-19T18:27:41.725Z,3.97
2022-11-19T18:30:09.041Z,3.30
2022-11-19T18:32:36.439Z,3.23
2022-11-19T18:35:03.476Z,3.97
2022-11-19T18:37:30.474Z,3.50
2022-11-19T18:39:57.164Z,3.73
2022-11-19T18:42:24.435Z,3.70
2022-11-19T18:44:51.471Z,4.33
2022-11-19T18:47:20.007Z,3.57
2022-11-19T18:49:46.782Z,3.70
2022-11-19T18:52:16.859Z,4.67
2022-11-19T18:54:43.940Z,4.73
2022-11-19T18:57:11.996Z,3.80
2022-11-19T18:59:39.251Z,3.30
2022-11-19T19:02:06.677Z,2.43
2022-11-19T19:04:33.742Z,3.33
2022-11-19T19:07:00.954Z,3.07
2022-11-19T19:09:28.120Z,3.13
2022-11-19T19:12:14.325Z,3.40
2022-11-19T19:14:42.173Z,2.27
2022-11-19T19:17:09.260Z,2.30
2022-11-19T19:19:35.900Z,2.50
2022-11-19T19:22:02.967Z,4.27
2022-11-19T19:24:31.323Z,2.67
2022-11-19T19:26:58.580Z,2.80
2022-11-19T19:29:25.547Z,3.10
2022-11-19T19:31:52.363Z,3.10
2022-11-19T19:34:19.727Z,2.90
2022-11-19T19:36:52.716Z,2.77
2022-11-19T19:39:19.941Z,2.63
2022-11-19T19:41:46.743Z,3.27
2022-11-19T19:44:13.752Z,3.40
2022-11-19T19:46:40.744Z,3.60
2022-11-19T19:49:07.820Z,3.80
2022-11-19T19:51:34.407Z,4.27
2022-11-19T19:54:01.480Z,4.77
2022-11-19T19:56:32.710Z,4.03
2022-11-19T19:59:01.058Z,3.70
2022-11-19T20:01:33.546Z,4.03
2022-11-19T20:04:10.795Z,4.20
2022-11-19T20:06:43.427Z,3.47
2022-11-19T20:09:10.188Z,3.23
2022-11-19T20:11:37.574Z,2.97
2022-11-19T20:14:04.827Z,3.00
2022-11-19T20:16:32.795Z,2.37
2022-11-19T20:19:00.754Z,3.07
2022-11-19T20:21:31.458Z,2.70
2022-11-19T20:23:58.520Z,3.03
2022-11-19T20:26:30.527Z,3.23
2022-11-19T20:28:59.214Z,3.00
2022-11-19T20:31:27.129Z,3.10
2022-11-19T20:33:56.960Z,3.20
2022-11-19T20:36:24.587Z,2.80
2022-11-19T20:38:51.252Z,3.00
2022-11-19T20:41:37.577Z,3.67
2022-11-19T20:44:19.961Z,2.63
2022-11-19T20:46:58.478Z,3.00
2022-11-19T20:49:27.658Z,3.07
2022-11-19T20:51:54.996Z,2.80
2022-11-19T20:54:22.357Z,3.00
2022-11-19T20:56:49.734Z,2.57
2022-11-19T20:59:16.928Z,3.17
2022-11-19T21:01:43.527Z,3.00
2022-11-19T21:04:11.506Z,2.80
2022-11-19T21:06:38.788Z,2.53
2022-11-19T21:09:05.837Z,3.43
2022-11-19T21:11:33.188Z,2.67
2022-11-19T21:14:00.096Z,3.07
2022-11-19T21:16:28.822Z,3.13
2022-11-19T21:18:56.317Z,2.83
2022-11-19T21:21:26.701Z,2.80
2022-11-19T21:23:54.009Z,3.33
2022-11-19T21:26:23.356Z,2.90
2022-11-19T21:28:52.268Z,2.97
2022-11-19T21:31:21.772Z,2.87
2022-11-19T21:33:48.836Z,2.50
2022-11-19T21:36:15.484Z,2.50
2022-11-19T21:38:42.519Z,3.03
2022-11-19T21:41:09.562Z,2.20
2022-11-19T21:43:36.564Z,2.90
2022-11-19T21:46:07.674Z,2.50
2022-11-19T21:48:34.663Z,2.47
2022-11-19T21:51:06.408Z,2.20
2022-11-19T21:53:34.106Z,1.80
2022-11-19T21:56:01.244Z,2.03
2022-11-19T21:58:27.792Z,1.90
2022-11-19T22:01:01.987Z,2.30
2022-11-19T22:03:31.175Z,2.87
2022-11-19T22:06:05.733Z,2.40
2022-11-19T22:08:33.525Z,2.50
2022-11-19T22:11:00.372Z,3.63
2022-11-19T22:13:27.494Z,2.00
2022-11-19T22:16:00.912Z,3.20
2022-11-19T22:18:27.495Z,2.23
2022-11-19T22:21:01.879Z,2.70
2022-11-19T22:23:28.550Z,1.97
2022-11-19T22:25:55.609Z,2.30
2022-11-19T22:28:22.653Z,2.20
2022-11-19T22:30:53.503Z,2.13
2022-11-19T22:33:20.808Z,2.17
2022-11-19T22:35:48.024Z,2.20
2022-11-19T22:38:15.473Z,2.00
2022-11-19T22:40:42.126Z,1.90
2022-11-19T22:43:08.848Z,1.87
2022-11-19T22:45:35.433Z,1.53
2022-11-19T22:48:02.533Z,1.90
2022-11-19T22:50:29.098Z,1.93
2022-11-19T22:52:56.107Z,2.03
2022-11-19T22:55:23.083Z,1.97
2022-11-19T22:57:50.137Z,1.93
2022-11-19T23:00:40.489Z,1.73
2022-11-19T23:03:07.630Z,1.70
2022-11-19T23:05:37.284Z,2.03
2022-11-19T23:08:06.201Z,1.90
2022-11-19T23:10:33.532Z,2.13
2022-11-19T23:13:19.862Z,2.53
2022-11-19T23:16:12.067Z,1.93
2022-11-19T23:18:47.600Z,2.30
2022-11-19T23:21:33.980Z,1.77
2022-11-19T23:24:01.103Z,1.93
2022-11-19T23:26:30.314Z,1.83
2022-11-19T23:28:57.595Z,1.60
2022-11-19T23:31:25.565Z,2.07
2022-11-19T23:33:57.578Z,2.00
2022-11-19T23:36:31.449Z,1.90
2022-11-19T23:38:59.764Z,2.17
2022-11-19T23:41:26.908Z,1.30
2022-11-19T23:43:55.149Z,2.10
2022-11-19T23:46:25.274Z,2.43
2022-11-19T23:48:54.560Z,1.73
2022-11-19T23:51:27.145Z,1.70
2022-11-19T23:53:54.491Z,1.80
2022-11-19T23:56:22.742Z,1.53
2022-11-19T23:58:49.966Z,1.30
